EZY627 EGBB-EGPH
Flight info
| Callsign | EZY627 |
|---|---|
| Flight time | 0h 44m |
| Altitude | 28000 |
| Route | LUVUM DCT TNT N57 POL UN601 RIBEL DCT INPIP |
| Aircraft | A320/M-SDE3FGHIRWY/LB1 |
Departure
| Time | 2026-05-06 16:18 |
|---|---|
| Airport | Birmingham Airport (EGBB) |
Arrival
| Time | 2026-05-06 17:02 |
|---|---|
| Airport | Edinburgh Airport (EGPH) |
| Time | Latitude | Longitude | Altitude | Speed | Heading |
|---|---|---|---|---|---|
| 2026-05-06 15:55 | 52.45102 | -1.73526 | 342 ft | 0 kts | 146° |
| 2026-05-06 16:11 | 52.45112 | -1.73537 | 341 ft | 3 kts | 149° |
| 2026-05-06 16:11 | 52.45130 | -1.73552 | 341 ft | 3 kts | 162° |
| 2026-05-06 16:11 | 52.45149 | -1.73557 | 341 ft | 3 kts | 193° |
| 2026-05-06 16:11 | 52.45162 | -1.73548 | 341 ft | 1 kts | 235° |
| 2026-05-06 16:12 | 52.45163 | -1.73545 | 341 ft | 0 kts | 236° |
| 2026-05-06 16:14 | 52.45147 | -1.73584 | 341 ft | 7 kts | 236° |
| 2026-05-06 16:14 | 52.45120 | -1.73650 | 341 ft | 7 kts | 236° |
| 2026-05-06 16:14 | 52.45085 | -1.73718 | 341 ft | 8 kts | 212° |
| 2026-05-06 16:15 | 52.45046 | -1.73782 | 341 ft | 8 kts | 235° |
| 2026-05-06 16:15 | 52.44991 | -1.73842 | 341 ft | 12 kts | 161° |
| 2026-05-06 16:15 | 52.44915 | -1.73760 | 341 ft | 17 kts | 145° |
| 2026-05-06 16:15 | 52.44812 | -1.73687 | 341 ft | 16 kts | 186° |
| 2026-05-06 16:16 | 52.44721 | -1.73752 | 341 ft | 14 kts | 231° |
| 2026-05-06 16:16 | 52.44674 | -1.73868 | 341 ft | 12 kts | 236° |
| 2026-05-06 16:16 | 52.44655 | -1.73985 | 341 ft | 11 kts | 308° |
| 2026-05-06 16:16 | 52.44667 | -1.74003 | 341 ft | 0 kts | 326° |
| 2026-05-06 16:17 | 52.44771 | -1.74117 | 341 ft | 56 kts | 326° |
| 2026-05-06 16:18 | 52.45320 | -1.74729 | 342 ft | 131 kts | 327° |
| 2026-05-06 16:18 | 52.46216 | -1.75739 | 542 ft | 168 kts | 328° |
| 2026-05-06 16:18 | 52.47148 | -1.76825 | 1351 ft | 164 kts | 327° |
| 2026-05-06 16:18 | 52.48074 | -1.77853 | 2195 ft | 163 kts | 329° |
| 2026-05-06 16:19 | 52.49099 | -1.78826 | 2639 ft | 177 kts | 339° |
| 2026-05-06 16:19 | 52.50339 | -1.79150 | 3047 ft | 188 kts | 5° |
| 2026-05-06 16:19 | 52.51682 | -1.78825 | 3478 ft | 202 kts | 11° |
| 2026-05-06 16:19 | 52.53140 | -1.78423 | 3856 ft | 223 kts | 9° |
| 2026-05-06 16:20 | 52.54732 | -1.78084 | 4412 ft | 239 kts | 7° |
| 2026-05-06 16:20 | 52.56434 | -1.77778 | 5012 ft | 253 kts | 7° |
| 2026-05-06 16:20 | 52.58226 | -1.77431 | 5664 ft | 264 kts | 7° |
| 2026-05-06 16:20 | 52.60053 | -1.77046 | 5968 ft | 265 kts | 7° |
| 2026-05-06 16:21 | 52.61887 | -1.76656 | 5996 ft | 266 kts | 7° |
| 2026-05-06 16:21 | 52.63722 | -1.76281 | 5993 ft | 266 kts | 7° |
| 2026-05-06 16:21 | 52.65555 | -1.75912 | 5993 ft | 266 kts | 7° |
| 2026-05-06 16:21 | 52.67392 | -1.75537 | 5994 ft | 266 kts | 7° |
| 2026-05-06 16:22 | 52.69226 | -1.75157 | 5994 ft | 266 kts | 7° |
| 2026-05-06 16:22 | 52.71038 | -1.74785 | 5993 ft | 266 kts | 7° |
| 2026-05-06 16:22 | 52.72870 | -1.74402 | 6071 ft | 265 kts | 8° |
| 2026-05-06 16:22 | 52.74703 | -1.73981 | 6513 ft | 266 kts | 8° |
| 2026-05-06 16:23 | 52.76554 | -1.73546 | 7308 ft | 270 kts | 8° |
| 2026-05-06 16:23 | 52.78425 | -1.73120 | 8151 ft | 273 kts | 7° |
| 2026-05-06 16:23 | 52.80323 | -1.72699 | 8961 ft | 277 kts | 7° |
| 2026-05-06 16:23 | 52.82249 | -1.72270 | 9746 ft | 281 kts | 7° |
| 2026-05-06 16:24 | 52.84200 | -1.71827 | 10485 ft | 287 kts | 6° |
| 2026-05-06 16:24 | 52.86229 | -1.71367 | 10967 ft | 302 kts | 6° |
| 2026-05-06 16:24 | 52.88371 | -1.70887 | 11375 ft | 319 kts | 6° |
| 2026-05-06 16:24 | 52.90622 | -1.70381 | 11799 ft | 333 kts | 6° |
| 2026-05-06 16:25 | 52.92967 | -1.69848 | 12204 ft | 347 kts | 6° |
| 2026-05-06 16:25 | 52.95382 | -1.69293 | 12817 ft | 353 kts | 6° |
| 2026-05-06 16:25 | 52.97823 | -1.68732 | 13479 ft | 356 kts | 6° |
| 2026-05-06 16:25 | 53.00293 | -1.68167 | 14125 ft | 360 kts | 6° |
| 2026-05-06 16:26 | 53.02788 | -1.67598 | 14751 ft | 364 kts | 6° |
| 2026-05-06 16:26 | 53.05317 | -1.67339 | 15346 ft | 365 kts | 354° |
| 2026-05-06 16:26 | 53.07794 | -1.68229 | 15943 ft | 365 kts | 340° |
| 2026-05-06 16:26 | 53.10189 | -1.69694 | 16513 ft | 368 kts | 337° |
| 2026-05-06 16:27 | 53.12571 | -1.71310 | 17068 ft | 371 kts | 336° |
| 2026-05-06 16:27 | 53.14972 | -1.72937 | 17626 ft | 374 kts | 336° |
| 2026-05-06 16:27 | 53.17413 | -1.74512 | 18165 ft | 378 kts | 338° |
| 2026-05-06 16:27 | 53.19856 | -1.76015 | 18669 ft | 381 kts | 338° |
| 2026-05-06 16:28 | 53.22358 | -1.77528 | 19165 ft | 384 kts | 338° |
| 2026-05-06 16:28 | 53.24883 | -1.79070 | 19652 ft | 387 kts | 338° |
| 2026-05-06 16:28 | 53.27415 | -1.80647 | 20134 ft | 389 kts | 338° |
| 2026-05-06 16:28 | 53.29959 | -1.82248 | 20599 ft | 392 kts | 338° |
| 2026-05-06 16:29 | 53.32523 | -1.83864 | 21049 ft | 395 kts | 338° |
| 2026-05-06 16:29 | 53.35108 | -1.85488 | 21494 ft | 398 kts | 338° |
| 2026-05-06 16:29 | 53.37705 | -1.87114 | 21918 ft | 400 kts | 338° |
| 2026-05-06 16:29 | 53.40328 | -1.88756 | 22333 ft | 403 kts | 338° |
| 2026-05-06 16:30 | 53.42962 | -1.90409 | 22741 ft | 406 kts | 338° |
| 2026-05-06 16:30 | 53.44715 | -1.91514 | 23012 ft | 407 kts | 337° |
| 2026-05-06 16:30 | 53.48281 | -1.93765 | 23548 ft | 410 kts | 337° |
| 2026-05-06 16:30 | 53.50957 | -1.95455 | 23970 ft | 411 kts | 337° |
| 2026-05-06 16:31 | 53.53597 | -1.97123 | 24461 ft | 410 kts | 337° |
| 2026-05-06 16:31 | 53.56263 | -1.98808 | 24965 ft | 409 kts | 337° |
| 2026-05-06 16:31 | 53.58920 | -2.00488 | 25438 ft | 408 kts | 337° |
| 2026-05-06 16:31 | 53.61574 | -2.02170 | 25934 ft | 406 kts | 337° |
| 2026-05-06 16:32 | 53.64211 | -2.03847 | 26403 ft | 405 kts | 337° |
| 2026-05-06 16:32 | 53.66846 | -2.05526 | 26866 ft | 404 kts | 337° |
| 2026-05-06 16:32 | 53.69474 | -2.07202 | 27329 ft | 403 kts | 337° |
| 2026-05-06 16:32 | 53.72097 | -2.08873 | 27763 ft | 402 kts | 336° |
| 2026-05-06 16:33 | 53.74716 | -2.10560 | 28024 ft | 402 kts | 336° |
| 2026-05-06 16:33 | 53.77307 | -2.12304 | 28037 ft | 401 kts | 335° |
| 2026-05-06 16:34 | 53.85081 | -2.17631 | 28044 ft | 402 kts | 335° |
| 2026-05-06 16:34 | 53.90266 | -2.21172 | 28047 ft | 402 kts | 335° |
| 2026-05-06 16:35 | 53.95441 | -2.24718 | 28052 ft | 401 kts | 335° |
| 2026-05-06 16:35 | 54.00614 | -2.28279 | 28041 ft | 401 kts | 335° |
| 2026-05-06 16:36 | 54.05770 | -2.31838 | 28035 ft | 400 kts | 335° |
| 2026-05-06 16:36 | 54.10936 | -2.35409 | 28020 ft | 400 kts | 335° |
| 2026-05-06 16:37 | 54.16098 | -2.38985 | 28017 ft | 400 kts | 335° |
| 2026-05-06 16:37 | 54.21260 | -2.42572 | 28034 ft | 400 kts | 335° |
| 2026-05-06 16:38 | 54.26400 | -2.46159 | 28073 ft | 399 kts | 335° |
| 2026-05-06 16:38 | 54.31501 | -2.49725 | 28073 ft | 398 kts | 335° |
| 2026-05-06 16:39 | 54.36633 | -2.53320 | 28066 ft | 398 kts | 335° |
| 2026-05-06 16:39 | 54.41760 | -2.56927 | 28076 ft | 398 kts | 335° |
| 2026-05-06 16:40 | 54.46880 | -2.60533 | 28075 ft | 397 kts | 335° |
| 2026-05-06 16:40 | 54.51989 | -2.64137 | 28073 ft | 397 kts | 335° |
| 2026-05-06 16:41 | 54.57094 | -2.67756 | 28072 ft | 396 kts | 335° |
| 2026-05-06 16:41 | 54.62190 | -2.71379 | 28074 ft | 395 kts | 335° |
| 2026-05-06 16:42 | 54.67255 | -2.74987 | 27727 ft | 392 kts | 335° |
| 2026-05-06 16:42 | 54.69764 | -2.76777 | 27354 ft | 389 kts | 335° |
| 2026-05-06 16:42 | 54.72265 | -2.78560 | 26968 ft | 387 kts | 335° |
| 2026-05-06 16:42 | 54.74737 | -2.80326 | 26522 ft | 383 kts | 335° |
| 2026-05-06 16:43 | 54.77191 | -2.82082 | 26074 ft | 380 kts | 335° |
| 2026-05-06 16:43 | 54.79627 | -2.83825 | 25626 ft | 377 kts | 335° |
| 2026-05-06 16:43 | 54.82045 | -2.85554 | 25177 ft | 374 kts | 335° |
| 2026-05-06 16:43 | 54.84440 | -2.87265 | 24725 ft | 371 kts | 335° |
| 2026-05-06 16:44 | 54.86812 | -2.88959 | 24253 ft | 368 kts | 335° |
| 2026-05-06 16:44 | 54.89169 | -2.90639 | 23780 ft | 364 kts | 335° |
| 2026-05-06 16:44 | 54.91507 | -2.92304 | 23297 ft | 361 kts | 335° |
| 2026-05-06 16:44 | 54.93823 | -2.93954 | 22793 ft | 359 kts | 335° |
| 2026-05-06 16:45 | 54.96128 | -2.95601 | 22248 ft | 358 kts | 335° |
| 2026-05-06 16:45 | 54.98425 | -2.97244 | 21700 ft | 356 kts | 335° |
| 2026-05-06 16:45 | 55.00714 | -2.98885 | 21152 ft | 355 kts | 335° |
| 2026-05-06 16:45 | 55.02998 | -3.00525 | 20603 ft | 354 kts | 335° |
| 2026-05-06 16:46 | 55.05277 | -3.02165 | 20023 ft | 354 kts | 335° |
| 2026-05-06 16:46 | 55.07555 | -3.03806 | 19448 ft | 354 kts | 335° |
| 2026-05-06 16:46 | 55.09831 | -3.05449 | 18875 ft | 354 kts | 335° |
| 2026-05-06 16:46 | 55.12105 | -3.07092 | 18299 ft | 354 kts | 335° |
| 2026-05-06 16:47 | 55.14381 | -3.08737 | 17725 ft | 354 kts | 335° |
| 2026-05-06 16:47 | 55.16656 | -3.10385 | 17150 ft | 353 kts | 335° |
| 2026-05-06 16:47 | 55.18919 | -3.12033 | 16569 ft | 350 kts | 335° |
| 2026-05-06 16:47 | 55.21146 | -3.13662 | 15994 ft | 344 kts | 335° |
| 2026-05-06 16:48 | 55.23339 | -3.15273 | 15419 ft | 339 kts | 335° |
| 2026-05-06 16:48 | 55.25507 | -3.16875 | 14843 ft | 335 kts | 335° |
| 2026-05-06 16:48 | 55.27639 | -3.18457 | 14268 ft | 331 kts | 335° |
| 2026-05-06 16:48 | 55.29721 | -3.20012 | 13718 ft | 327 kts | 335° |
| 2026-05-06 16:49 | 55.31796 | -3.21566 | 13193 ft | 322 kts | 335° |
| 2026-05-06 16:49 | 55.33860 | -3.23115 | 12685 ft | 316 kts | 335° |
| 2026-05-06 16:49 | 55.35843 | -3.24607 | 12191 ft | 311 kts | 335° |
| 2026-05-06 16:49 | 55.37823 | -3.26102 | 11689 ft | 307 kts | 335° |
| 2026-05-06 16:50 | 55.39766 | -3.27579 | 11205 ft | 302 kts | 335° |
| 2026-05-06 16:50 | 55.41671 | -3.29036 | 10763 ft | 296 kts | 335° |
| 2026-05-06 16:50 | 55.43529 | -3.30467 | 10400 ft | 287 kts | 335° |
| 2026-05-06 16:50 | 55.44729 | -3.31395 | 10168 ft | 282 kts | 335° |
| 2026-05-06 16:51 | 55.47082 | -3.33228 | 9695 ft | 272 kts | 335° |
| 2026-05-06 16:51 | 55.48785 | -3.34563 | 9348 ft | 264 kts | 334° |
| 2026-05-06 16:51 | 55.50444 | -3.35872 | 8987 ft | 258 kts | 335° |
| 2026-05-06 16:51 | 55.52063 | -3.37149 | 8631 ft | 253 kts | 334° |
| 2026-05-06 16:52 | 55.53656 | -3.38405 | 8232 ft | 249 kts | 334° |
| 2026-05-06 16:52 | 55.55230 | -3.39646 | 7864 ft | 248 kts | 334° |
| 2026-05-06 16:52 | 55.56803 | -3.40888 | 7508 ft | 246 kts | 335° |
| 2026-05-06 16:52 | 55.58356 | -3.42122 | 7163 ft | 244 kts | 334° |
| 2026-05-06 16:53 | 55.59879 | -3.43334 | 7017 ft | 234 kts | 334° |
| 2026-05-06 16:53 | 55.61336 | -3.44486 | 7022 ft | 227 kts | 334° |
| 2026-05-06 16:53 | 55.62781 | -3.45627 | 7025 ft | 227 kts | 334° |
| 2026-05-06 16:53 | 55.64225 | -3.46770 | 7025 ft | 227 kts | 334° |
| 2026-05-06 16:54 | 55.65593 | -3.47853 | 7025 ft | 227 kts | 334° |
| 2026-05-06 16:54 | 55.67002 | -3.49120 | 6946 ft | 227 kts | 329° |
| 2026-05-06 16:54 | 55.68369 | -3.50496 | 6695 ft | 225 kts | 328° |
| 2026-05-06 16:54 | 55.69720 | -3.51890 | 6414 ft | 224 kts | 328° |
| 2026-05-06 16:55 | 55.71053 | -3.53269 | 6138 ft | 220 kts | 328° |
| 2026-05-06 16:55 | 55.72365 | -3.54624 | 5877 ft | 216 kts | 328° |
| 2026-05-06 16:55 | 55.73618 | -3.55920 | 5696 ft | 207 kts | 328° |
| 2026-05-06 16:55 | 55.74863 | -3.57207 | 5429 ft | 201 kts | 328° |
| 2026-05-06 16:56 | 55.76059 | -3.58444 | 5088 ft | 197 kts | 328° |
| 2026-05-06 16:56 | 55.77241 | -3.59668 | 4710 ft | 196 kts | 328° |
| 2026-05-06 16:56 | 55.78418 | -3.60889 | 4320 ft | 196 kts | 328° |
| 2026-05-06 16:56 | 55.79593 | -3.62106 | 4006 ft | 193 kts | 328° |
| 2026-05-06 16:57 | 55.80695 | -3.63239 | 3966 ft | 176 kts | 328° |
| 2026-05-06 16:57 | 55.81740 | -3.64196 | 3963 ft | 164 kts | 342° |
| 2026-05-06 16:57 | 55.82843 | -3.64151 | 3982 ft | 160 kts | 16° |
| 2026-05-06 16:57 | 55.83896 | -3.63495 | 3990 ft | 160 kts | 21° |
| 2026-05-06 16:58 | 55.84951 | -3.62730 | 3766 ft | 167 kts | 26° |
| 2026-05-06 16:58 | 55.85987 | -3.61681 | 3350 ft | 177 kts | 31° |
| 2026-05-06 16:58 | 55.87023 | -3.60399 | 2947 ft | 183 kts | 46° |
| 2026-05-06 16:58 | 55.87778 | -3.58621 | 2719 ft | 178 kts | 58° |
| 2026-05-06 16:59 | 55.88429 | -3.56766 | 2482 ft | 176 kts | 60° |
| 2026-05-06 16:59 | 55.89054 | -3.54906 | 2240 ft | 173 kts | 60° |
| 2026-05-06 16:59 | 55.89659 | -3.53100 | 2006 ft | 165 kts | 60° |
| 2026-05-06 16:59 | 55.90232 | -3.51409 | 1789 ft | 154 kts | 62° |
| 2026-05-06 17:00 | 55.90596 | -3.50330 | 1664 ft | 147 kts | 61° |
| 2026-05-06 17:00 | 55.91094 | -3.48846 | 1491 ft | 136 kts | 60° |
| 2026-05-06 17:00 | 55.91572 | -3.47429 | 1301 ft | 132 kts | 59° |
| 2026-05-06 17:00 | 55.92046 | -3.46026 | 1121 ft | 132 kts | 60° |
| 2026-05-06 17:01 | 55.92518 | -3.44624 | 943 ft | 132 kts | 60° |
| 2026-05-06 17:01 | 55.92989 | -3.43228 | 767 ft | 131 kts | 60° |
| 2026-05-06 17:01 | 55.93458 | -3.41834 | 591 ft | 131 kts | 60° |
| 2026-05-06 17:01 | 55.93926 | -3.40442 | 418 ft | 131 kts | 60° |
| 2026-05-06 17:02 | 55.94398 | -3.39058 | 247 ft | 130 kts | 59° |
| 2026-05-06 17:02 | 55.94855 | -3.37682 | 149 ft | 124 kts | 60° |
| 2026-05-06 17:02 | 55.95156 | -3.36788 | 149 ft | 41 kts | 59° |
| 2026-05-06 17:02 | 55.95254 | -3.36499 | 149 ft | 15 kts | 61° |
| 2026-05-06 17:03 | 55.95212 | -3.36369 | 149 ft | 13 kts | 144° |
| 2026-05-06 17:03 | 55.95144 | -3.36272 | 149 ft | 12 kts | 105° |
| 2026-05-06 17:03 | 55.95133 | -3.36200 | 149 ft | 2 kts | 106° |
| 2026-05-06 17:03 | 55.95129 | -3.36172 | 149 ft | 2 kts | 106° |
| 2026-05-06 17:04 | 55.95128 | -3.36169 | 149 ft | 0 kts | 106° |
| 2026-05-06 17:04 | 55.95128 | -3.36168 | 149 ft | 0 kts | 106° |
| 2026-05-06 17:04 | 55.95126 | -3.36159 | 149 ft | 4 kts | 106° |
| 2026-05-06 17:04 | 55.95111 | -3.36071 | 149 ft | 8 kts | 109° |
| 2026-05-06 17:05 | 55.95087 | -3.35977 | 149 ft | 9 kts | 119° |
| 2026-05-06 17:05 | 55.95057 | -3.35884 | 149 ft | 9 kts | 125° |
| 2026-05-06 17:05 | 55.95004 | -3.35844 | 149 ft | 9 kts | 199° |
| 2026-05-06 17:05 | 55.94950 | -3.35879 | 149 ft | 8 kts | 165° |
| 2026-05-06 17:06 | 55.94917 | -3.35801 | 149 ft | 8 kts | 118° |
| 2026-05-06 17:06 | 55.94888 | -3.35711 | 149 ft | 8 kts | 131° |
| 2026-05-06 17:06 | 55.94839 | -3.35722 | 149 ft | 8 kts | 210° |
| 2026-05-06 17:06 | 55.94814 | -3.35747 | 149 ft | 0 kts | 209° |